Time;durP1;ratioP1;P1;durP2;ratioP2;P2;SDS_P1;SDS_P2;PMS_P1;PMS_P2;Temp;Humidity;BMP_temperature;BMP_pressure;BME280_temperature;BME280_humidity;BME280_pressure;Samples;Min_cycle;Max_cycle;Signal;HPM_P1;HPM_P2
2022/01/22 00:01:47;;;;;;;20.45;5.95;;;;;;;3.51;91.81;103382.81;4788455;29;20114;-83
2022/01/22 00:04:13;;;;;;;16.80;5.20;;;;;;;3.51;92.15;103376.63;4772418;30;20146;-82
2022/01/22 00:06:39;;;;;;;11.50;5.15;;;;;;;3.56;91.87;103377.75;4757343;30;20382;-83
2022/01/22 00:09:05;;;;;;;14.75;5.22;;;;;;;3.55;91.91;103376.88;4772143;30;20042;-82
2022/01/22 00:11:38;;;;;;;17.88;5.70;;;;;;;3.57;92.35;103374.31;4788266;29;20143;-82
2022/01/22 00:16:47;;;;;;;19.38;5.80;;;;;;;3.62;91.71;103373.72;4774057;29;20078;-83
2022/01/22 00:19:13;;;;;;;21.83;6.30;;;;;;;3.60;91.92;103369.22;4757988;30;20577;-83
2022/01/22 00:21:39;;;;;;;17.90;4.88;;;;;;;3.64;91.61;103371.19;4770134;30;20114;-83
2022/01/22 00:24:08;;;;;;;16.95;4.65;;;;;;;3.69;91.56;103374.91;4771494;30;20083;-82
2022/01/22 00:26:33;;;;;;;14.43;5.35;;;;;;;3.68;91.88;103365.22;4788057;29;20449;-83
2022/01/22 00:28:59;;;;;;;19.63;5.55;;;;;;;3.65;91.53;103362.47;4786348;29;20046;-82
2022/01/22 00:31:25;;;;;;;17.92;5.00;;;;;;;3.65;91.41;103365.09;4756793;29;20155;-82
2022/01/22 00:33:51;;;;;;;11.18;4.75;;;;;;;3.68;91.38;103362.63;4786063;29;20520;-82
2022/01/22 00:36:16;;;;;;;12.18;4.85;;;;;;;3.69;91.11;103358.28;4780272;29;20035;-82
2022/01/22 00:38:42;;;;;;;14.70;5.32;;;;;;;3.67;91.09;103358.22;4771442;30;20039;-82
2022/01/22 00:41:07;;;;;;;11.30;5.15;;;;;;;3.70;91.67;103354.84;4771835;30;20473;-82
2022/01/22 00:43:33;;;;;;;18.85;6.05;;;;;;;3.67;91.18;103345.09;4786414;29;20042;-82
2022/01/22 00:45:59;;;;;;;23.15;6.63;;;;;;;3.67;91.34;103351.25;4771575;29;20470;-82
2022/01/22 00:48:25;;;;;;;13.63;5.60;;;;;;;3.67;91.29;103351.25;4771628;29;20406;-83
2022/01/22 00:50:54;;;;;;;12.95;5.93;;;;;;;3.69;91.31;103348.69;4786051;29;20078;-82
2022/01/22 00:53:20;;;;;;;21.10;6.30;;;;;;;3.69;91.72;103351.31;4771333;30;20154;-82
2022/01/22 00:55:45;;;;;;;17.40;6.35;;;;;;;3.66;90.93;103345.94;4787427;29;20054;-82
2022/01/22 00:58:11;;;;;;;14.00;6.40;;;;;;;3.71;91.39;103351.38;4786097;29;20058;-82
2022/01/22 01:00:36;;;;;;;21.50;8.07;;;;;;;3.67;91.55;103351.25;4785987;29;20441;-83
2022/01/22 01:03:02;;;;;;;17.13;6.45;;;;;;;3.68;91.55;103354.75;4800557;29;20453;-82
2022/01/22 01:05:27;;;;;;;16.48;5.80;;;;;;;3.72;91.32;103379.41;4785586;29;20048;-82
2022/01/22 01:07:53;;;;;;;13.65;6.60;;;;;;;3.71;91.33;103377.59;4786790;29;20115;-82
2022/01/22 01:10:20;;;;;;;14.50;6.00;;;;;;;3.72;91.12;103375.03;4785372;29;20118;-82
2022/01/22 01:12:49;;;;;;;12.80;6.30;;;;;;;3.72;91.54;103379.41;4770517;29;20445;-83
2022/01/22 01:34:39;;;;;;;24.55;6.93;;;;;;;3.67;92.27;103359.09;4784623;29;20094;-82
2022/01/22 01:37:04;;;;;;;24.27;7.43;;;;;;;3.67;92.38;103358.22;4784746;29;20042;-83
2022/01/22 01:39:33;;;;;;;17.08;6.40;;;;;;;3.70;92.37;103367.94;4755460;30;20027;-82
2022/01/22 01:42:04;;;;;;;16.85;7.22;;;;;;;3.70;92.06;103371.44;4770690;30;20126;-82
2022/01/22 01:44:31;;;;;;;14.70;6.15;;;;;;;3.72;92.18;103385.53;4769900;30;20047;-82
2022/01/22 01:47:13;;;;;;;14.10;7.00;;;;;;;3.65;92.48;103375.56;4739256;30;20036;-82
2022/01/22 01:49:38;;;;;;;14.68;6.47;;;;;;;3.66;92.71;103380.00;4766670;30;20039;-82
2022/01/22 01:52:25;;;;;;;15.95;6.22;;;;;;;3.64;93.30;103376.41;4767013;30;20104;-82
2022/01/22 01:57:48;;;;;;;14.82;6.53;;;;;;;3.67;93.35;103376.56;4767084;30;20055;-82
2022/01/22 02:00:24;;;;;;;;;;;;;;;3.69;94.03;103371.41;4752423;30;20052;-82
2022/01/22 02:02:54;;;;;;;19.75;7.35;;;;;;;3.63;94.40;103369.38;4766938;30;19925;-82
2022/01/22 02:05:23;;;;;;;19.40;8.50;;;;;;;3.61;94.83;103369.31;4752280;30;20079;-82
2022/01/22 02:07:54;;;;;;;15.60;7.32;;;;;;;3.61;94.65;103361.44;4751241;30;20038;-82
2022/01/22 02:10:26;;;;;;;14.68;7.30;;;;;;;3.57;94.93;103362.13;4784433;29;20054;-82
2022/01/22 02:13:46;;;;;;;16.80;7.88;;;;;;;3.58;95.29;103366.53;4783977;30;20051;-82
2022/01/22 02:24:08;;;;;;;17.58;8.88;;;;;;;3.60;95.56;103367.50;4775294;30;20690;-82
2022/01/22 02:26:34;;;;;;;17.13;9.02;;;;;;;3.57;95.23;103363.84;4754978;30;20039;-82
2022/01/22 02:29:00;;;;;;;19.50;9.32;;;;;;;3.62;95.30;103367.56;4769254;29;20115;-82
2022/01/22 02:34:49;;;;;;;16.05;8.95;;;;;;;3.58;95.98;103361.28;4784421;29;20093;-82
2022/01/22 02:37:18;;;;;;;20.80;10.60;;;;;;;3.61;95.79;103360.53;4769666;30;20043;-82
2022/01/22 02:39:58;;;;;;;23.42;10.90;;;;;;;3.58;96.46;103356.03;4770170;30;20107;-82
2022/01/22 02:42:30;;;;;;;26.63;11.27;;;;;;;3.61;95.85;103352.66;4786960;29;20088;-82
2022/01/22 02:44:55;;;;;;;;;;;;;;;3.67;95.51;103356.47;4773730;30;20107;-82
2022/01/22 02:47:21;;;;;;;27.48;12.48;;;;;;;3.61;96.02;103345.72;4758830;29;20244;-82
2022/01/22 02:49:47;;;;;;;28.98;10.48;;;;;;;3.64;95.97;103358.97;4788097;29;20043;-82
2022/01/22 02:52:13;;;;;;;18.23;10.70;;;;;;;3.63;96.85;103358.88;4773242;29;20104;-82
2022/01/22 02:54:44;;;;;;;22.08;12.60;;;;;;;3.63;96.52;103351.91;4773573;30;20070;-82
2022/01/22 02:57:11;;;;;;;21.58;11.95;;;;;;;3.64;96.75;103356.34;4788066;29;20145;-82
2022/01/22 02:59:40;;;;;;;29.23;11.75;;;;;;;3.59;97.02;103355.22;4773108;29;20084;-82
2022/01/22 03:02:12;;;;;;;21.88;11.52;;;;;;;3.65;96.24;103365.09;4787986;29;20043;-82
2022/01/22 03:04:39;;;;;;;26.65;12.63;;;;;;;3.65;96.57;103371.22;4789317;29;20059;-82
2022/01/22 03:07:05;;;;;;;25.85;13.95;;;;;;;3.59;97.18;103362.19;4773199;30;20057;-82
2022/01/22 03:09:38;;;;;;;23.98;14.23;;;;;;;3.66;96.92;103374.78;4772994;30;20429;-82
2022/01/22 03:17:52;;;;;;;21.17;13.30;;;;;;;3.69;97.29;103369.66;4770360;29;20055;-82
2022/01/22 03:27:56;;;;;;;28.02;16.33;;;;;;;3.71;97.49;103364.47;4774414;30;20488;-82
2022/01/22 03:30:40;;;;;;;28.58;15.70;;;;;;;3.71;97.71;103373.25;4772469;30;20102;-82
2022/01/22 03:33:06;;;;;;;24.35;16.05;;;;;;;3.65;97.53;103358.13;4772091;30;20051;-82
2022/01/22 03:35:35;;;;;;;38.03;17.55;;;;;;;3.65;98.29;103367.72;4771880;29;20060;-82
2022/01/22 03:38:00;;;;;;;32.83;16.00;;;;;;;3.72;97.91;103382.00;4787168;29;20566;-82
2022/01/22 03:40:29;;;;;;;29.80;16.88;;;;;;;3.67;98.15;103366.06;4772012;29;20056;-82
2022/01/22 03:42:56;;;;;;;32.70;16.23;;;;;;;3.67;98.48;103366.97;4788514;29;20460;-82
2022/01/22 03:45:23;;;;;;;25.70;16.23;;;;;;;3.70;98.18;103371.44;4772060;30;20047;-82
2022/01/22 03:47:50;;;;;;;26.00;16.05;;;;;;;3.69;98.79;103374.91;4757580;29;20051;-82
2022/01/22 03:50:19;;;;;;;35.25;18.27;;;;;;;3.63;99.03;103367.63;4788345;29;20115;-82
2022/01/22 03:52:45;;;;;;;33.20;18.52;;;;;;;3.70;98.35;103376.69;4757167;29;20405;-82
2022/01/22 03:55:22;;;;;;;28.38;16.60;;;;;;;3.74;99.02;103378.63;4786905;29;20224;-82
2022/01/22 03:58:08;;;;;;;43.10;19.23;;;;;;;3.73;98.97;103374.22;4786948;29;20124;-82
2022/01/22 04:00:36;;;;;;;28.67;17.60;;;;;;;3.72;99.57;103375.03;4771705;29;20124;-82
2022/01/22 04:03:27;;;;;;;35.78;20.60;;;;;;;3.73;99.30;103374.22;4786511;29;20054;-82
2022/01/22 04:08:39;;;;;;;34.80;19.83;;;;;;;3.76;99.66;103371.75;4750147;29;20475;-81
2022/01/22 04:11:09;;;;;;;31.90;18.92;;;;;;;3.76;99.73;103376.06;4771634;29;20042;-82
2022/01/22 04:13:36;;;;;;;40.28;19.88;;;;;;;3.75;99.79;103369.94;4786755;29;20055;-82
2022/01/22 04:16:03;;;;;;;36.53;21.42;;;;;;;3.74;99.53;103364.66;4788155;29;20035;-82
2022/01/22 04:26:52;;;;;;;34.00;19.85;;;;;;;3.80;99.82;103370.16;4774066;30;20047;-82
2022/01/22 04:29:23;;;;;;;31.88;19.55;;;;;;;3.77;99.99;103365.66;4787768;29;20035;-82
2022/01/22 04:31:49;;;;;;;27.95;18.63;;;;;;;3.78;100.00;103367.44;4756520;30;20051;-82
2022/01/22 04:34:15;;;;;;;30.70;20.85;;;;;;;3.80;100.00;103375.41;4771244;29;20032;-82
2022/01/22 04:36:41;;;;;;;31.73;19.10;;;;;;;3.81;100.00;103380.72;4771135;30;20036;-82
2022/01/22 04:39:07;;;;;;;35.13;20.50;;;;;;;3.81;100.00;103374.59;4787364;29;20080;-81
2022/01/22 04:41:33;;;;;;;39.17;21.92;;;;;;;3.83;100.00;103375.53;4787591;29;20039;-82
2022/01/22 04:43:59;;;;;;;39.45;20.52;;;;;;;3.83;100.00;103380.78;4787189;29;20048;-82
2022/01/22 04:46:50;;;;;;;36.75;20.52;;;;;;;3.80;100.00;103371.03;4767912;30;20063;-81
2022/01/22 04:57:17;;;;;;;37.80;20.33;;;;;;;3.85;100.00;103373.88;4753135;30;20059;-81
2022/01/22 04:59:43;;;;;;;39.65;20.27;;;;;;;3.85;100.00;103372.16;4753075;30;20435;-81
2022/01/22 05:02:09;;;;;;;43.38;22.52;;;;;;;3.85;100.00;103368.66;4767832;30;20067;-81
2022/01/22 05:04:57;;;;;;;50.67;22.70;;;;;;;3.90;100.00;103374.09;4767599;30;20023;-81
2022/01/22 05:07:45;;;;;;;32.13;18.98;;;;;;;3.92;100.00;103378.59;4767756;30;20118;-82
2022/01/22 05:10:34;;;;;;;32.72;19.80;;;;;;;3.92;100.00;103378.59;4763706;30;20134;-81
2022/01/22 05:13:02;;;;;;;41.10;22.00;;;;;;;3.92;100.00;103369.84;4767438;30;20051;-81
2022/01/22 05:15:28;;;;;;;39.63;21.63;;;;;;;3.91;100.00;103361.09;4752463;30;20443;-81
2022/01/22 05:17:53;;;;;;;36.78;21.33;;;;;;;3.89;100.00;103360.09;4773909;29;20038;-81
2022/01/22 05:20:32;;;;;;;37.40;21.27;;;;;;;3.92;100.00;103352.38;4756030;29;20103;-81
2022/01/22 05:23:24;;;;;;;44.03;23.95;;;;;;;3.92;100.00;103357.63;4766935;30;20051;-81
2022/01/22 05:26:09;;;;;;;39.30;20.33;;;;;;;3.91;100.00;103347.97;4767358;30;20052;-82
2022/01/22 05:32:21;;;;;;;38.00;20.35;;;;;;;3.98;100.00;103351.75;4767634;30;20353;-82
2022/01/22 05:37:39;;;;;;;43.80;19.27;;;;;;;3.99;100.00;103350.94;4749343;30;20052;-82
2022/01/22 05:40:06;;;;;;;36.83;19.30;;;;;;;4.03;100.00;103360.72;4764235;30;20401;-82
2022/01/22 05:42:31;;;;;;;39.72;20.20;;;;;;;4.02;100.00;103364.19;4749719;30;20058;-82
2022/01/22 05:44:57;;;;;;;41.58;19.38;;;;;;;4.04;100.00;103367.78;4751313;30;20044;-81
2022/01/22 05:47:26;;;;;;;34.60;20.60;;;;;;;4.01;100.00;103355.44;4768726;30;20486;-81
2022/01/22 05:49:52;;;;;;;32.78;18.98;;;;;;;4.07;100.00;103367.91;4767165;30;20043;-82
2022/01/22 05:52:28;;;;;;;39.22;19.38;;;;;;;4.03;100.00;103352.84;4767128;30;20031;-82
2022/01/22 06:00:24;;;;;;;34.17;19.65;;;;;;;4.08;100.00;103369.72;4767123;30;20501;-82
2022/01/22 06:03:03;;;;;;;33.20;17.80;;;;;;;4.05;100.00;103354.72;4766960;30;20434;-82
2022/01/22 06:05:29;;;;;;;41.78;19.80;;;;;;;4.06;100.00;103369.63;4737621;30;20036;-82
2022/01/22 06:07:55;;;;;;;39.75;20.05;;;;;;;4.05;100.00;103366.94;4767313;30;20114;-82
2022/01/22 06:10:27;;;;;;;35.28;22.27;;;;;;;4.07;100.00;103367.91;4766826;30;20042;-82
2022/01/22 06:15:23;;;;;;;36.58;19.80;;;;;;;4.09;100.00;103371.50;4752475;30;20511;-82
2022/01/22 06:18:09;;;;;;;43.20;20.02;;;;;;;4.09;100.00;103364.53;4767465;30;20040;-82
2022/01/22 06:20:34;;;;;;;38.78;21.67;;;;;;;4.07;100.00;103358.31;4766720;30;20040;-82
2022/01/22 06:23:02;;;;;;;40.60;22.05;;;;;;;4.10;100.00;103362.78;4766503;30;20059;-82
2022/01/22 06:25:28;;;;;;;37.28;21.92;;;;;;;4.08;100.00;103361.84;4766887;30;20108;-82
2022/01/22 06:27:53;;;;;;;46.38;21.88;;;;;;;4.06;100.00;103364.41;4766733;30;20056;-81
2022/01/22 06:30:20;;;;;;;37.90;19.95;;;;;;;4.09;100.00;103375.00;4766845;30;20122;-82
2022/01/22 06:32:49;;;;;;;39.38;19.80;;;;;;;4.11;100.00;103377.72;4781599;29;20393;-82
2022/01/22 06:35:15;;;;;;;37.95;20.05;;;;;;;4.09;100.00;103371.50;4766802;30;20047;-82
2022/01/22 06:37:41;;;;;;;36.92;18.88;;;;;;;4.11;100.00;103374.22;4781941;29;20126;-82
2022/01/22 06:43:06;;;;;;;38.22;19.20;;;;;;;4.16;100.00;103384.06;4767303;30;20109;-82
2022/01/22 06:45:50;;;;;;;42.85;17.50;;;;;;;4.15;100.00;103384.00;4766423;30;20053;-82
2022/01/22 06:48:15;;;;;;;35.22;17.88;;;;;;;4.14;100.00;103372.59;4781770;29;20122;-82
2022/01/22 06:51:04;;;;;;;32.10;17.23;;;;;;;4.21;100.00;103381.66;4766660;30;20489;-82
2022/01/22 06:53:29;;;;;;;31.13;16.98;;;;;;;4.21;100.00;103390.41;4767971;30;20123;-82
2022/01/22 06:55:59;;;;;;;29.95;16.23;;;;;;;4.20;100.00;103383.34;4766390;30;20191;-82
2022/01/22 06:58:32;;;;;;;36.13;16.40;;;;;;;4.22;100.00;103392.19;4753176;30;20052;-82
2022/01/22 07:01:03;;;;;;;31.75;15.63;;;;;;;4.26;100.00;103390.63;4766773;30;20162;-82
2022/01/22 07:03:40;;;;;;;32.75;15.18;;;;;;;4.25;100.00;103386.19;4766614;30;20036;-82
2022/01/22 07:06:25;;;;;;;38.15;15.82;;;;;;;4.31;100.00;103396.97;4766756;30;20062;-82
2022/01/22 07:08:51;;;;;;;26.70;15.48;;;;;;;4.31;100.00;103391.72;4766627;30;20051;-82
2022/01/22 07:11:18;;;;;;;31.33;14.23;;;;;;;4.34;100.00;103396.22;4752242;30;20056;-82
2022/01/22 07:13:46;;;;;;;35.80;14.50;;;;;;;4.30;100.00;103390.84;4751914;30;20051;-82
2022/01/22 07:16:12;;;;;;;30.42;15.40;;;;;;;4.32;100.00;103409.25;4766664;30;20134;-82
2022/01/22 07:18:38;;;;;;;30.05;14.27;;;;;;;4.32;100.00;103412.75;4780683;29;20104;-82
2022/01/22 07:21:21;;;;;;;28.63;15.25;;;;;;;4.31;100.00;103400.50;4766541;30;20123;-82
2022/01/22 07:26:32;;;;;;;34.28;17.35;;;;;;;4.36;100.00;103420.78;4781427;29;20469;-82
2022/01/22 07:29:11;;;;;;;35.58;15.80;;;;;;;4.39;100.00;103429.69;4784045;29;20143;-82
2022/01/22 07:31:38;;;;;;;33.70;16.13;;;;;;;4.33;100.00;103411.06;4784535;29;20048;-82
2022/01/22 07:34:05;;;;;;;30.08;15.05;;;;;;;4.38;100.00;103424.41;4769482;30;20130;-82
2022/01/22 07:36:31;;;;;;;29.65;16.08;;;;;;;4.39;99.82;103428.81;4769546;30;20047;-82
2022/01/22 07:38:58;;;;;;;34.92;16.58;;;;;;;4.42;99.79;103431.56;4755265;30;20400;-82
2022/01/22 07:41:24;;;;;;;31.20;14.45;;;;;;;4.40;99.90;103428.88;4770911;30;20040;-82
2022/01/22 07:44:15;;;;;;;;;;;;;;;4.45;99.90;103436.94;4757670;30;20071;-82
2022/01/22 07:46:46;;;;;;;32.78;14.40;;;;;;;4.41;100.00;103433.28;4780432;30;19928;-82
2022/01/22 07:49:20;;;;;;;28.20;13.35;;;;;;;4.37;100.00;103430.44;4739014;30;20052;-82
2022/01/22 07:51:55;;;;;;;34.40;14.68;;;;;;;4.43;100.00;103436.88;4766391;30;20084;-82
2022/01/22 07:54:21;;;;;;;27.48;14.80;;;;;;;4.44;99.95;103445.66;4751433;30;20349;-82
2022/01/22 07:56:47;;;;;;;34.92;14.60;;;;;;;4.46;100.00;103449.25;4766325;30;20032;-82
2022/01/22 07:59:13;;;;;;;26.63;13.43;;;;;;;4.44;99.90;103441.28;4736560;30;20498;-82
2022/01/22 08:04:34;;;;;;;32.47;13.18;;;;;;;4.46;100.00;103437.00;4751278;30;20048;-82
2022/01/22 08:07:35;;;;;;;28.58;13.13;;;;;;;4.53;100.00;103436.47;4750545;30;20036;-82
2022/01/22 08:10:21;;;;;;;29.65;12.95;;;;;;;4.51;100.00;103422.38;4751282;30;20056;-82
2022/01/22 08:12:51;;;;;;;29.33;13.10;;;;;;;4.52;100.00;103421.56;4751456;30;20044;-82
2022/01/22 08:15:18;;;;;;;29.77;14.25;;;;;;;4.56;100.00;103433.06;4765950;30;20051;-82
2022/01/22 08:17:45;;;;;;;26.02;13.27;;;;;;;4.53;99.98;103423.34;4773555;29;20054;-82
2022/01/22 08:20:13;;;;;;;23.38;13.05;;;;;;;4.59;100.00;103430.56;4768861;30;20511;-82
2022/01/22 08:22:52;;;;;;;29.23;11.50;;;;;;;4.61;100.00;103434.19;4772786;29;20186;-82
2022/01/22 08:25:39;;;;;;;24.58;11.85;;;;;;;4.59;100.00;103430.56;4787946;29;20177;-82
2022/01/22 08:31:26;;;;;;;22.55;11.68;;;;;;;4.64;100.00;103433.41;4774022;29;20075;-82
2022/01/22 08:36:39;;;;;;;24.33;11.27;;;;;;;4.67;100.00;103425.66;4786634;29;20047;-82
2022/01/22 08:39:06;;;;;;;24.02;11.95;;;;;;;4.65;99.90;103417.75;4756744;30;20039;-82
2022/01/22 08:41:33;;;;;;;21.98;11.32;;;;;;;4.67;100.00;103420.41;4771596;29;20492;-82
2022/01/22 08:43:59;;;;;;;24.90;11.05;;;;;;;4.70;99.87;103421.47;4756137;30;20087;-82
2022/01/22 08:46:25;;;;;;;26.48;11.48;;;;;;;4.71;99.86;103418.00;4768117;30;20036;-82
2022/01/22 08:48:51;;;;;;;30.75;11.52;;;;;;;4.72;100.00;103422.44;4768026;30;20050;-83
2022/01/22 08:51:16;;;;;;;36.10;11.18;;;;;;;4.75;99.89;103429.53;4768108;30;20096;-82
2022/01/22 08:53:42;;;;;;;22.48;11.52;;;;;;;4.76;99.85;103425.19;4753299;30;20035;-82
2022/01/22 08:56:09;;;;;;;25.63;11.50;;;;;;;4.80;99.76;103440.22;4768094;30;20099;-82
2022/01/22 08:58:37;;;;;;;26.17;11.25;;;;;;;4.81;99.51;103442.91;4738924;30;20187;-82
2022/01/22 09:01:24;;;;;;;26.08;10.50;;;;;;;4.83;99.54;103438.63;4769152;30;20135;-82
2022/01/22 09:03:53;;;;;;;25.88;10.38;;;;;;;4.82;98.87;103438.56;4768095;30;20090;-82
2022/01/22 09:06:42;;;;;;;20.92;9.35;;;;;;;4.87;99.33;103448.44;4767740;30;20179;-83
2022/01/22 09:09:26;;;;;;;26.05;10.60;;;;;;;4.86;99.38;103449.25;4768245;30;20066;-82
2022/01/22 09:11:53;;;;;;;23.05;10.15;;;;;;;4.89;98.73;103459.91;4769447;30;20052;-82
2022/01/22 09:14:35;;;;;;;22.55;10.30;;;;;;;4.92;98.56;103460.06;4742279;30;20028;-83
2022/01/22 09:17:01;;;;;;;32.20;10.18;;;;;;;4.94;98.06;103465.34;4755350;29;20046;-83
2022/01/22 09:19:33;;;;;;;22.80;9.45;;;;;;;4.96;99.02;103464.59;4770940;30;20036;-83
2022/01/22 09:22:05;;;;;;;23.83;9.32;;;;;;;4.96;98.47;103461.97;4770506;29;20422;-82
2022/01/22 09:24:32;;;;;;;19.77;9.30;;;;;;;4.98;98.21;103459.41;4785221;29;20420;-83
2022/01/22 09:27:00;;;;;;;21.00;8.70;;;;;;;5.04;98.22;103456.13;4770364;30;20059;-83
2022/01/22 09:29:26;;;;;;;17.55;7.95;;;;;;;5.06;98.46;103457.09;4770452;29;20043;-83
2022/01/22 09:31:52;;;;;;;17.55;8.38;;;;;;;5.06;98.10;103465.88;4768760;29;20035;-83
2022/01/22 09:34:37;;;;;;;18.48;8.23;;;;;;;5.08;98.02;103465.97;4759037;29;20062;-82
2022/01/22 09:37:15;;;;;;;24.42;8.93;;;;;;;5.12;98.44;103483.66;4781038;29;20055;-83
2022/01/22 09:40:15;;;;;;;14.37;8.07;;;;;;;5.14;97.85;103480.25;4748429;30;20091;-83
2022/01/22 09:43:16;;;;;;;19.27;7.97;;;;;;;5.15;97.56;103481.16;4731040;30;20085;-83
2022/01/22 09:46:01;;;;;;;21.05;8.52;;;;;;;5.16;97.59;103485.56;4757159;29;20062;-81
2022/01/22 09:48:47;;;;;;;23.95;9.23;;;;;;;5.16;97.46;103496.97;4757188;29;20039;-81
2022/01/22 09:51:32;;;;;;;18.00;8.68;;;;;;;5.20;97.60;103492.75;4797076;29;20526;-81
2022/01/22 09:54:11;;;;;;;19.67;8.68;;;;;;;5.21;97.49;103491.91;4769676;30;20600;-81
2022/01/22 09:56:58;;;;;;;16.73;7.65;;;;;;;5.21;97.59;103491.91;4772443;29;20066;-82
2022/01/22 09:59:42;;;;;;;16.50;8.25;;;;;;;5.22;97.20;103485.84;4773002;30;20058;-82
2022/01/22 10:02:43;;;;;;;18.70;9.15;;;;;;;5.23;96.86;103498.13;4784109;29;20039;-81
2022/01/22 10:05:33;;;;;;;21.45;9.02;;;;;;;5.26;96.49;103494.72;4799059;29;20031;-82
2022/01/22 10:08:39;;;;;;;19.25;9.25;;;;;;;5.24;97.08;103492.06;4740232;30;20102;-82
2022/01/22 10:11:26;;;;;;;26.13;9.60;;;;;;;5.25;97.17;103496.47;4729898;30;20053;-81
2022/01/22 10:14:10;;;;;;;21.50;10.38;;;;;;;5.26;96.87;103494.72;4767691;30;20116;-82
2022/01/22 10:16:38;;;;;;;21.35;10.30;;;;;;;5.29;96.45;103502.75;4769227;29;20043;-83
2022/01/22 10:19:15;;;;;;;23.60;11.50;;;;;;;5.30;97.14;103501.94;4767841;30;20050;-81
2022/01/22 10:22:04;;;;;;;28.65;12.90;;;;;;;5.29;96.86;103498.41;4777261;29;20047;-81
2022/01/22 10:24:47;;;;;;;26.45;14.00;;;;;;;5.29;97.10;103506.28;4770466;29;20052;-82
2022/01/22 10:27:38;;;;;;;36.83;13.90;;;;;;;5.31;97.24;103501.09;4779853;29;20478;-82
2022/01/22 10:30:11;;;;;;;24.35;13.00;;;;;;;5.29;97.11;103500.13;4770189;29;20043;-81
2022/01/22 10:35:28;;;;;;;31.33;13.45;;;;;;;5.31;97.23;103498.44;4785598;29;20092;-82
2022/01/22 10:38:17;;;;;;;27.10;14.50;;;;;;;5.31;97.08;103494.09;4771857;29;20132;-82
2022/01/22 10:40:44;;;;;;;27.17;13.68;;;;;;;5.32;97.31;103498.53;4785611;29;20449;-81
2022/01/22 10:43:34;;;;;;;29.40;15.48;;;;;;;5.32;97.13;103503.78;4769219;30;20353;-82
2022/01/22 10:48:57;;;;;;;26.02;13.57;;;;;;;5.35;97.51;103505.66;4799478;29;20123;-82
2022/01/22 10:51:24;;;;;;;24.60;14.13;;;;;;;5.31;97.59;103501.97;4768398;30;20043;-82
2022/01/22 10:54:02;;;;;;;28.73;12.90;;;;;;;5.33;97.24;103507.31;4769258;30;20035;-81
2022/01/22 10:56:30;;;;;;;24.23;12.40;;;;;;;5.32;97.69;103509.03;4769196;29;20448;-81
2022/01/22 10:59:06;;;;;;;27.13;15.25;;;;;;;5.31;97.17;103508.97;4769294;30;20035;-82
2022/01/22 11:01:53;;;;;;;28.25;12.73;;;;;;;5.34;97.68;103511.72;4769464;29;20712;-81
2022/01/22 11:04:26;;;;;;;30.85;13.60;;;;;;;5.32;97.70;103506.41;4788860;29;20031;-82
2022/01/22 11:06:59;;;;;;;28.33;12.73;;;;;;;5.33;97.53;103502.94;4772971;29;20491;-82
2022/01/22 11:09:29;;;;;;;25.48;13.85;;;;;;;5.36;96.95;103507.44;4788928;29;20054;-82
2022/01/22 11:11:56;;;;;;;27.63;12.75;;;;;;;5.34;97.08;103502.13;4772661;30;20039;-82
2022/01/22 11:14:22;;;;;;;20.48;12.18;;;;;;;5.35;97.03;103485.50;4772331;30;20035;-82
2022/01/22 11:16:50;;;;;;;25.10;13.27;;;;;;;5.37;96.82;103488.22;4787272;29;20065;-82
2022/01/22 11:19:18;;;;;;;23.55;12.30;;;;;;;5.38;97.42;103488.25;4772360;30;20039;-81
2022/01/22 11:21:49;;;;;;;20.23;12.77;;;;;;;5.38;97.09;103480.38;4788835;29;20062;-81
2022/01/22 11:24:20;;;;;;;;;;;;;;;5.44;96.99;103479.75;4777997;29;20556;-81
2022/01/22 11:26:50;;;;;;;31.60;14.90;;;;;;;5.44;97.57;103478.84;4787548;29;19968;-81
2022/01/22 11:29:17;;;;;;;27.65;14.35;;;;;;;5.44;97.35;103481.47;4772514;30;20393;-81
2022/01/22 11:31:45;;;;;;;26.15;15.05;;;;;;;5.44;97.94;103485.03;4757758;30;20133;-80
2022/01/22 11:34:14;;;;;;;25.65;14.10;;;;;;;5.44;97.82;103479.75;4788304;29;20061;-81
2022/01/22 11:36:54;;;;;;;26.38;14.93;;;;;;;5.46;97.87;103478.06;4772505;30;20044;-81
2022/01/22 11:39:23;;;;;;;24.77;14.65;;;;;;;5.47;97.79;103484.25;4788596;29;20082;-81
2022/01/22 11:41:58;;;;;;;27.33;12.90;;;;;;;5.48;97.65;103480.78;4787050;29;20031;-81
2022/01/22 11:44:35;;;;;;;26.08;12.77;;;;;;;5.47;97.69;103486.88;4788088;29;20154;-81
2022/01/22 11:47:16;;;;;;;24.67;13.57;;;;;;;5.48;97.46;103489.53;4757298;30;20110;-81
2022/01/22 11:50:03;;;;;;;;;;;;;;;5.52;97.59;103491.47;4772336;30;20039;-82
2022/01/22 11:52:32;;;;;;;27.65;13.57;;;;;;;5.50;97.45;103487.88;4787015;29;20014;-82
2022/01/22 11:55:01;;;;;;;22.15;13.40;;;;;;;5.53;96.98;103485.38;4771823;29;20072;-81
2022/01/22 11:57:31;;;;;;;28.70;14.38;;;;;;;5.53;97.08;103479.22;4772085;30;20051;-81
2022/01/22 12:00:19;;;;;;;29.92;14.27;;;;;;;5.55;97.51;103491.59;4771674;29;20091;-82
2022/01/22 12:02:45;;;;;;;26.23;14.02;;;;;;;5.55;97.24;103491.59;4788184;29;20104;-81
2022/01/22 12:05:11;;;;;;;22.17;13.65;;;;;;;5.55;97.31;103490.72;4772043;29;20216;-81
2022/01/22 12:07:37;;;;;;;25.50;14.63;;;;;;;5.55;97.25;103474.94;4768970;30;20043;-81
2022/01/22 12:15:41;;;;;;;24.33;13.80;;;;;;;5.55;97.84;103477.56;4761755;29;20078;-81
2022/01/22 12:18:12;;;;;;;31.58;15.80;;;;;;;5.52;97.67;103473.09;4785933;29;20465;-82
2022/01/22 12:23:33;;;;;;;33.05;15.60;;;;;;;5.56;97.82;103474.09;4761405;29;20063;-82
2022/01/22 12:26:01;;;;;;;34.35;17.20;;;;;;;5.51;98.08;103459.88;4771766;29;20043;-82
2022/01/22 12:28:42;;;;;;;30.50;16.75;;;;;;;5.56;97.39;103474.09;4786294;30;20027;-81
2022/01/22 12:31:16;;;;;;;35.13;16.80;;;;;;;5.54;97.46;103483.66;4787681;29;20071;-81
2022/01/22 12:33:41;;;;;;;27.40;17.40;;;;;;;5.56;97.29;103481.97;4770874;30;20039;-82
2022/01/22 12:36:25;;;;;;;31.75;17.30;;;;;;;5.56;98.09;103487.22;4786823;29;20116;-81
2022/01/22 12:39:09;;;;;;;26.38;17.70;;;;;;;5.53;97.87;103466.97;4767990;30;20040;-81
2022/01/22 12:41:47;;;;;;;32.13;18.13;;;;;;;5.55;97.37;103469.69;4768321;30;20145;-82
2022/01/22 12:44:28;;;;;;;27.15;18.17;;;;;;;5.53;97.42;103480.13;4768220;30;20358;-81
2022/01/22 12:46:59;;;;;;;31.70;18.67;;;;;;;5.53;97.64;103479.22;4795250;29;20066;-81
2022/01/22 12:49:26;;;;;;;27.65;19.65;;;;;;;5.51;97.52;103479.16;4769481;30;20679;-82
2022/01/22 12:51:59;;;;;;;30.60;20.58;;;;;;;5.51;97.42;103483.53;4783375;29;20031;-82
2022/01/22 12:54:30;;;;;;;32.22;20.67;;;;;;;5.51;97.29;103478.25;4767690;30;20564;-81
2022/01/22 12:57:10;;;;;;;35.67;22.17;;;;;;;5.48;96.96;103486.03;4798176;29;20051;-81
2022/01/22 13:02:54;;;;;;;33.20;21.08;;;;;;;5.49;97.37;103490.44;4797941;29;20044;-81
2022/01/22 13:05:20;;;;;;;35.28;20.55;;;;;;;5.49;97.19;103490.44;4768089;30;20159;-81
2022/01/22 13:08:07;;;;;;;38.70;20.35;;;;;;;5.48;97.78;103488.66;4769457;30;20058;-82
2022/01/22 13:10:44;;;;;;;35.63;20.17;;;;;;;5.49;97.26;103479.91;4768519;30;20082;-81
2022/01/22 13:13:18;;;;;;;40.00;24.27;;;;;;;5.47;96.87;103481.63;4783295;29;20051;-81
2022/01/22 13:15:59;;;;;;;41.20;23.60;;;;;;;5.45;97.64;103475.41;4783770;29;20039;-81
2022/01/22 13:18:25;;;;;;;35.25;21.17;;;;;;;5.49;97.47;103485.19;4774625;29;20636;-81
2022/01/22 13:20:51;;;;;;;30.88;20.58;;;;;;;5.49;97.54;103486.09;4742520;29;20032;-81
2022/01/22 13:23:19;;;;;;;41.15;22.45;;;;;;;5.45;97.42;103486.78;4770778;30;20070;-82
2022/01/22 13:25:45;;;;;;;42.30;24.63;;;;;;;5.47;96.55;103487.75;4752559;30;20047;-82
2022/01/22 13:28:11;;;;;;;31.73;20.40;;;;;;;5.49;96.73;103490.44;4784576;30;20565;-82
2022/01/22 13:30:43;;;;;;;41.28;22.05;;;;;;;5.48;97.46;103488.66;4781343;29;20457;-82
2022/01/22 13:36:12;;;;;;;38.85;24.98;;;;;;;5.44;96.74;103478.84;4781408;29;20172;-83
2022/01/22 13:49:41;;;;;;;40.10;23.80;;;;;;;5.49;96.55;103490.44;4766026;29;20091;-83
2022/01/22 13:52:08;;;;;;;39.45;24.15;;;;;;;5.45;96.30;103486.78;4765912;29;20047;-83